Time;durP1;ratioP1;P1;durP2;ratioP2;P2;SDS_P1;SDS_P2;PMS_P1;PMS_P2;Temp;Humidity;BMP_temperature;BMP_pressure;BME280_temperature;BME280_humidity;BME280_pressure;Samples;Min_cycle;Max_cycle;Signal;HPM_P1;HPM_P2
2024/02/18 00:00:55;;;;;;;29.38;13.05;;;;;;;;;;5068182;28;20090;-63
2024/02/18 00:03:21;;;;;;;27.83;12.95;;;;;;;;;;5067820;28;20175;-63
2024/02/18 00:05:47;;;;;;;32.90;13.35;;;;;;;;;;5071903;28;20025;-63
2024/02/18 00:08:13;;;;;;;32.95;14.35;;;;;;;;;;5068489;28;20017;-61
2024/02/18 00:10:39;;;;;;;29.77;14.82;;;;;;;;;;5065137;28;20039;-63
2024/02/18 00:13:07;;;;;;;30.55;14.05;;;;;;;;;;5065550;28;20020;-63
2024/02/18 00:15:33;;;;;;;28.80;14.05;;;;;;;;;;5065565;28;21894;-64
2024/02/18 00:17:59;;;;;;;26.75;11.73;;;;;;;;;;5070065;28;20398;-63
2024/02/18 00:20:25;;;;;;;40.67;14.15;;;;;;;;;;5071411;28;20493;-64
2024/02/18 00:22:51;;;;;;;25.25;13.70;;;;;;;;;;5070729;28;20036;-63
2024/02/18 00:25:17;;;;;;;25.98;12.57;;;;;;;;;;5062685;28;20476;-63
2024/02/18 00:27:43;;;;;;;25.33;12.82;;;;;;;;;;5074982;28;20040;-62
2024/02/18 00:30:09;;;;;;;33.80;13.57;;;;;;;;;;5072951;28;20028;-63
2024/02/18 00:32:35;;;;;;;34.60;13.35;;;;;;;;;;5074800;28;20102;-64
2024/02/18 00:35:01;;;;;;;30.10;11.90;;;;;;;;;;5074275;28;20120;-64
2024/02/18 00:37:27;;;;;;;28.35;13.32;;;;;;;;;;5072495;28;20032;-63
2024/02/18 00:39:53;;;;;;;35.97;13.80;;;;;;;;;;5070109;28;20056;-63
2024/02/18 00:42:19;;;;;;;24.90;12.13;;;;;;;;;;5072271;28;20114;-64
2024/02/18 00:44:45;;;;;;;20.63;10.75;;;;;;;;;;5064256;28;20108;-64
2024/02/18 00:47:11;;;;;;;23.98;10.23;;;;;;;;;;5068867;28;20036;-62
2024/02/18 00:49:37;;;;;;;29.23;12.00;;;;;;;;;;5073004;28;20029;-64
2024/02/18 00:52:03;;;;;;;28.75;11.60;;;;;;;;;;5071253;28;20032;-62
2024/02/18 00:54:29;;;;;;;27.17;11.57;;;;;;;;;;5077094;28;20029;-63
2024/02/18 00:56:55;;;;;;;26.67;10.75;;;;;;;;;;5074183;28;20040;-64
2024/02/18 00:59:22;;;;;;;26.42;12.05;;;;;;;;;;5073961;28;20092;-63
2024/02/18 01:01:48;;;;;;;26.00;12.85;;;;;;;;;;5073721;28;20032;-62
2024/02/18 01:04:14;;;;;;;32.35;12.80;;;;;;;;;;5065516;28;20028;-62
2024/02/18 01:06:40;;;;;;;37.88;12.35;;;;;;;;;;5064972;28;20390;-63
2024/02/18 01:09:06;;;;;;;24.42;10.95;;;;;;;;;;5070612;28;20025;-62
2024/02/18 01:11:32;;;;;;;25.15;11.60;;;;;;;;;;5074595;28;20039;-61
2024/02/18 01:13:58;;;;;;;25.20;11.40;;;;;;;;;;5073815;28;20502;-61
2024/02/18 01:16:24;;;;;;;25.90;11.25;;;;;;;;;;5076429;28;20025;-64
2024/02/18 01:18:50;;;;;;;25.33;11.32;;;;;;;;;;5075373;28;20088;-64
2024/02/18 01:21:16;;;;;;;29.40;11.88;;;;;;;;;;5073357;28;20030;-64
2024/02/18 01:23:45;;;;;;;24.13;10.60;;;;;;;;;;5075290;28;20107;-64
2024/02/18 01:26:12;;;;;;;25.30;10.15;;;;;;;;;;5071395;28;20028;-64
2024/02/18 01:28:37;;;;;;;25.50;9.63;;;;;;;;;;5074886;28;20104;-63
2024/02/18 01:31:03;;;;;;;18.52;9.55;;;;;;;;;;5058199;28;20036;-64
2024/02/18 01:33:30;;;;;;;22.58;10.20;;;;;;;;;;5070798;28;20047;-63
2024/02/18 01:35:56;;;;;;;19.80;9.55;;;;;;;;;;5072314;28;20185;-62
2024/02/18 01:38:22;;;;;;;16.45;9.07;;;;;;;;;;5067706;28;20056;-63
2024/02/18 01:40:48;;;;;;;20.50;9.15;;;;;;;;;;5071243;28;20033;-61
2024/02/18 01:43:17;;;;;;;20.08;9.52;;;;;;;;;;5068535;28;20025;-64
2024/02/18 01:45:44;;;;;;;22.38;9.05;;;;;;;;;;5068983;28;20111;-63
2024/02/18 01:48:10;;;;;;;17.10;8.65;;;;;;;;;;5069898;28;20127;-63
2024/02/18 01:50:36;;;;;;;21.42;9.57;;;;;;;;;;5074241;28;20355;-64
2024/02/18 01:53:02;;;;;;;19.95;8.65;;;;;;;;;;5069012;28;20039;-64
2024/02/18 01:55:28;;;;;;;20.02;8.60;;;;;;;;;;5068205;28;20043;-64
2024/02/18 01:57:54;;;;;;;12.88;8.23;;;;;;;;;;5066353;28;20036;-64
2024/02/18 02:00:22;;;;;;;18.27;8.95;;;;;;;;;;5063331;28;20440;-63
2024/02/18 02:02:48;;;;;;;21.70;8.85;;;;;;;;;;5072216;28;20676;-63
2024/02/18 02:05:16;;;;;;;16.10;8.45;;;;;;;;;;5065332;28;20120;-63
2024/02/18 02:07:43;;;;;;;19.75;9.23;;;;;;;;;;5069935;28;20052;-63
2024/02/18 02:10:11;;;;;;;21.08;8.95;;;;;;;;;;5073376;28;20035;-63
2024/02/18 02:12:41;;;;;;;18.48;8.23;;;;;;;;;;5069474;28;20114;-63
2024/02/18 02:15:07;;;;;;;22.20;8.52;;;;;;;;;;5052778;28;20491;-62
2024/02/18 02:17:33;;;;;;;17.20;8.77;;;;;;;;;;5068256;28;20032;-63
2024/02/18 02:19:59;;;;;;;18.25;8.65;;;;;;;;;;5072118;28;20379;-63
2024/02/18 02:22:25;;;;;;;22.33;7.63;;;;;;;;;;5072729;28;20033;-64
2024/02/18 02:24:51;;;;;;;25.60;8.02;;;;;;;;;;5070772;28;20039;-61
2024/02/18 02:27:20;;;;;;;17.23;7.32;;;;;;;;;;5072030;28;20029;-63
2024/02/18 02:29:47;;;;;;;17.70;7.70;;;;;;;;;;5071216;28;20498;-63
2024/02/18 02:32:13;;;;;;;16.95;7.05;;;;;;;;;;5064842;28;20422;-64
2024/02/18 02:34:40;;;;;;;17.15;8.05;;;;;;;;;;5065149;28;20030;-63
2024/02/18 02:37:06;;;;;;;19.75;7.30;;;;;;;;;;5072394;28;20021;-63
2024/02/18 02:39:32;;;;;;;12.07;6.97;;;;;;;;;;5065443;28;20091;-63
2024/02/18 02:42:00;;;;;;;18.90;6.93;;;;;;;;;;5052210;28;20040;-63
2024/02/18 02:44:26;;;;;;;16.58;6.70;;;;;;;;;;5067782;28;20024;-63
2024/02/18 02:46:52;;;;;;;17.15;6.38;;;;;;;;;;5066808;28;20106;-63
2024/02/18 02:49:17;;;;;;;13.63;6.20;;;;;;;;;;5063390;28;20025;-63
2024/02/18 02:51:44;;;;;;;11.98;6.35;;;;;;;;;;5064523;28;20348;-63
2024/02/18 02:54:10;;;;;;;12.32;5.72;;;;;;;;;;5062936;28;20052;-62
2024/02/18 02:56:36;;;;;;;14.18;7.10;;;;;;;;;;5063720;28;20406;-63
2024/02/18 02:59:02;;;;;;;21.25;6.15;;;;;;;;;;5066258;28;20055;-63
2024/02/18 03:01:27;;;;;;;15.48;7.20;;;;;;;;;;5069249;28;20111;-63
2024/02/18 03:03:53;;;;;;;15.35;6.90;;;;;;;;;;5067298;28;20024;-63
2024/02/18 03:06:19;;;;;;;13.57;5.90;;;;;;;;;;5068199;28;20028;-63
2024/02/18 03:08:45;;;;;;;12.95;5.78;;;;;;;;;;5070866;28;20016;-63
2024/02/18 03:11:12;;;;;;;12.85;6.38;;;;;;;;;;5063918;28;20358;-63
2024/02/18 03:13:38;;;;;;;13.02;6.97;;;;;;;;;;5069710;28;20040;-63
2024/02/18 03:16:05;;;;;;;20.48;8.30;;;;;;;;;;5064901;28;20044;-62
2024/02/18 03:18:32;;;;;;;16.27;7.32;;;;;;;;;;5067281;28;20024;-63
2024/02/18 03:20:58;;;;;;;13.38;7.22;;;;;;;;;;5067331;28;20386;-63
2024/02/18 03:23:26;;;;;;;15.93;7.13;;;;;;;;;;5071469;28;20016;-62
2024/02/18 03:25:54;;;;;;;18.77;7.43;;;;;;;;;;5064230;28;20020;-65
2024/02/18 03:28:20;;;;;;;11.35;7.03;;;;;;;;;;5067809;28;20031;-63
2024/02/18 03:30:50;;;;;;;16.52;7.72;;;;;;;;;;5066301;28;20048;-63
2024/02/18 03:33:16;;;;;;;16.52;7.80;;;;;;;;;;5069416;28;20024;-63
2024/02/18 03:35:42;;;;;;;11.15;6.07;;;;;;;;;;5050804;28;20031;-63
2024/02/18 03:38:08;;;;;;;14.68;7.63;;;;;;;;;;5069766;28;20103;-63
2024/02/18 03:40:35;;;;;;;14.48;6.80;;;;;;;;;;5068456;28;20021;-62
2024/02/18 03:43:01;;;;;;;16.08;7.00;;;;;;;;;;5068306;28;20036;-61
2024/02/18 03:45:27;;;;;;;19.60;6.75;;;;;;;;;;5062981;28;20032;-62
2024/02/18 03:47:53;;;;;;;14.57;7.07;;;;;;;;;;5073139;28;20582;-63
2024/02/18 03:50:19;;;;;;;16.40;6.75;;;;;;;;;;5072455;28;20020;-62
2024/02/18 03:52:45;;;;;;;14.55;7.22;;;;;;;;;;5078691;28;20028;-63
2024/02/18 03:55:12;;;;;;;14.82;6.53;;;;;;;;;;5072572;28;20028;-63
2024/02/18 03:57:38;;;;;;;14.10;6.60;;;;;;;;;;5072372;28;20028;-63
2024/02/18 04:00:05;;;;;;;14.07;6.80;;;;;;;;;;5065614;28;20052;-63
2024/02/18 04:02:33;;;;;;;17.55;7.15;;;;;;;;;;5072018;28;20028;-63
2024/02/18 04:04:59;;;;;;;14.27;6.35;;;;;;;;;;5071144;28;20485;-60
2024/02/18 04:07:25;;;;;;;8.70;5.57;;;;;;;;;;5068794;28;20025;-62
2024/02/18 04:09:51;;;;;;;17.40;6.65;;;;;;;;;;5067025;28;20021;-64
2024/02/18 04:12:17;;;;;;;20.30;7.68;;;;;;;;;;5068854;28;20427;-61
2024/02/18 04:14:43;;;;;;;17.92;6.50;;;;;;;;;;5071980;28;20410;-65
2024/02/18 04:17:09;;;;;;;18.33;7.03;;;;;;;;;;5068307;28;20115;-63
2024/02/18 04:19:35;;;;;;;11.02;6.43;;;;;;;;;;5067865;28;20047;-64
2024/02/18 04:22:01;;;;;;;18.10;6.70;;;;;;;;;;5071191;28;20044;-60
2024/02/18 04:24:27;;;;;;;9.90;6.13;;;;;;;;;;5069478;28;20028;-63
2024/02/18 04:26:52;;;;;;;14.50;6.18;;;;;;;;;;5072059;28;20027;-62
2024/02/18 04:29:18;;;;;;;16.90;6.30;;;;;;;;;;5068693;28;20107;-63
2024/02/18 04:31:44;;;;;;;20.15;7.10;;;;;;;;;;5069255;28;20051;-63
2024/02/18 04:34:10;;;;;;;19.45;6.88;;;;;;;;;;5052351;28;20095;-63
2024/02/18 04:36:36;;;;;;;22.17;6.93;;;;;;;;;;5067869;28;20371;-63
2024/02/18 04:39:02;;;;;;;18.65;7.47;;;;;;;;;;5074012;28;20108;-62
2024/02/18 04:41:28;;;;;;;15.50;6.25;;;;;;;;;;5064747;28;20098;-63
2024/02/18 04:43:54;;;;;;;16.95;7.13;;;;;;;;;;5071460;28;20621;-63
2024/02/18 04:46:20;;;;;;;12.60;6.43;;;;;;;;;;5068256;28;20490;-63
2024/02/18 04:48:46;;;;;;;15.93;6.28;;;;;;;;;;5075628;28;20028;-63
2024/02/18 04:51:12;;;;;;;14.95;5.95;;;;;;;;;;5067605;28;20031;-63
2024/02/18 04:53:38;;;;;;;10.27;5.32;;;;;;;;;;5075553;28;20034;-63
2024/02/18 04:56:04;;;;;;;13.05;5.50;;;;;;;;;;5073723;28;20408;-62
2024/02/18 04:58:30;;;;;;;15.98;6.20;;;;;;;;;;5068417;28;20028;-62
2024/02/18 05:00:56;;;;;;;16.60;6.32;;;;;;;;;;5067605;28;20050;-61
2024/02/18 05:03:22;;;;;;;14.50;6.32;;;;;;;;;;5072451;28;20426;-62
2024/02/18 05:05:48;;;;;;;12.90;6.55;;;;;;;;;;5067206;28;20028;-63
2024/02/18 05:08:14;;;;;;;10.38;5.35;;;;;;;;;;5070956;28;20040;-63
2024/02/18 05:10:40;;;;;;;15.45;6.22;;;;;;;;;;5067284;28;20037;-63
2024/02/18 05:13:06;;;;;;;8.93;5.32;;;;;;;;;;5074587;28;20025;-63
2024/02/18 05:15:32;;;;;;;12.90;6.40;;;;;;;;;;5064560;28;20021;-62
2024/02/18 05:17:58;;;;;;;13.02;5.85;;;;;;;;;;5069663;28;20033;-63
2024/02/18 05:20:24;;;;;;;12.77;5.13;;;;;;;;;;5068337;28;20024;-63
2024/02/18 05:22:51;;;;;;;12.02;5.80;;;;;;;;;;5068573;28;20025;-63
2024/02/18 05:25:17;;;;;;;11.55;5.45;;;;;;;;;;5072395;28;20104;-63
2024/02/18 05:27:43;;;;;;;8.68;4.43;;;;;;;;;;5072766;28;20024;-63
2024/02/18 05:30:09;;;;;;;11.70;5.03;;;;;;;;;;5051789;28;20474;-63
2024/02/18 05:32:35;;;;;;;10.10;5.10;;;;;;;;;;5070988;28;20031;-63
2024/02/18 05:35:01;;;;;;;12.32;5.05;;;;;;;;;;5069279;28;20111;-63
2024/02/18 05:37:27;;;;;;;11.88;5.30;;;;;;;;;;5068245;28;20115;-63
2024/02/18 05:39:53;;;;;;;12.07;5.53;;;;;;;;;;5065078;28;20029;-62
2024/02/18 05:42:19;;;;;;;8.82;5.15;;;;;;;;;;5067025;28;20111;-63
2024/02/18 05:44:46;;;;;;;17.10;5.13;;;;;;;;;;5067433;28;20024;-63
2024/02/18 05:47:12;;;;;;;11.73;4.70;;;;;;;;;;5071276;28;20499;-63
2024/02/18 05:49:38;;;;;;;12.35;5.55;;;;;;;;;;5067699;28;20032;-64
2024/02/18 05:52:04;;;;;;;12.75;4.47;;;;;;;;;;5070332;28;20132;-64
2024/02/18 05:54:30;;;;;;;15.52;5.55;;;;;;;;;;5071761;28;20546;-64
2024/02/18 05:56:56;;;;;;;14.02;4.80;;;;;;;;;;5068079;28;20037;-64
2024/02/18 05:59:22;;;;;;;13.13;4.30;;;;;;;;;;5071083;28;20028;-64
2024/02/18 06:01:48;;;;;;;9.70;4.68;;;;;;;;;;5068431;28;20462;-63
2024/02/18 06:04:14;;;;;;;13.30;4.80;;;;;;;;;;5068569;28;20162;-63
2024/02/18 06:06:40;;;;;;;14.70;4.63;;;;;;;;;;5069645;28;20024;-62
2024/02/18 06:09:06;;;;;;;12.10;5.13;;;;;;;;;;5070628;28;20033;-60
2024/02/18 06:11:32;;;;;;;13.70;4.43;;;;;;;;;;5067822;28;20028;-63
2024/02/18 06:13:58;;;;;;;14.70;5.20;;;;;;;;;;5072033;28;20039;-62
2024/02/18 06:16:24;;;;;;;14.75;4.90;;;;;;;;;;5069837;28;20040;-63
2024/02/18 06:18:49;;;;;;;12.73;4.30;;;;;;;;;;5075104;28;20032;-63
2024/02/18 06:21:19;;;;;;;14.95;4.88;;;;;;;;;;5075146;28;20027;-63
2024/02/18 06:23:45;;;;;;;9.93;4.53;;;;;;;;;;5068935;28;20021;-63
2024/02/18 06:26:11;;;;;;;9.75;4.60;;;;;;;;;;5073608;28;20098;-60
2024/02/18 06:28:37;;;;;;;12.02;4.95;;;;;;;;;;5069762;28;20111;-62
2024/02/18 06:31:03;;;;;;;13.93;5.15;;;;;;;;;;5068219;28;20040;-63
2024/02/18 06:33:29;;;;;;;17.73;5.45;;;;;;;;;;5071972;28;20516;-61
2024/02/18 06:35:55;;;;;;;16.75;4.80;;;;;;;;;;5073037;28;20028;-63
2024/02/18 06:38:21;;;;;;;17.40;4.47;;;;;;;;;;5069328;28;20048;-62
2024/02/18 06:40:47;;;;;;;13.02;4.13;;;;;;;;;;5068893;28;20075;-62
2024/02/18 06:43:13;;;;;;;10.07;4.07;;;;;;;;;;5068649;28;20094;-62
2024/02/18 06:45:39;;;;;;;11.70;4.57;;;;;;;;;;5067110;28;20187;-60
2024/02/18 06:48:05;;;;;;;10.38;4.53;;;;;;;;;;5065956;28;20028;-62
2024/02/18 06:50:31;;;;;;;11.65;4.50;;;;;;;;;;5055456;28;20150;-62
2024/02/18 06:52:57;;;;;;;15.25;4.53;;;;;;;;;;5065389;28;20544;-62
2024/02/18 06:55:23;;;;;;;7.85;4.82;;;;;;;;;;5063751;28;20521;-63
2024/02/18 06:57:49;;;;;;;13.65;4.72;;;;;;;;;;5047380;28;20474;-63
2024/02/18 07:00:16;;;;;;;8.10;3.92;;;;;;;;;;5068452;28;20039;-62
2024/02/18 07:02:43;;;;;;;12.57;4.72;;;;;;;;;;5068115;28;20020;-61
2024/02/18 07:05:09;;;;;;;12.73;4.75;;;;;;;;;;5052991;28;20126;-62
2024/02/18 07:07:38;;;;;;;12.50;4.63;;;;;;;;;;5071869;28;20497;-62
2024/02/18 07:10:05;;;;;;;12.02;4.57;;;;;;;;;;5068994;28;20036;-62
2024/02/18 07:12:32;;;;;;;11.32;4.95;;;;;;;;;;5069136;28;20033;-63
2024/02/18 07:14:58;;;;;;;18.63;5.40;;;;;;;;;;5076066;28;20028;-62
2024/02/18 07:17:24;;;;;;;10.18;4.53;;;;;;;;;;5068393;28;20115;-63
2024/02/18 07:19:50;;;;;;;10.50;4.63;;;;;;;;;;5072123;28;20035;-63
2024/02/18 07:22:17;;;;;;;14.40;5.10;;;;;;;;;;5068107;28;20173;-60
2024/02/18 07:24:44;;;;;;;13.02;4.28;;;;;;;;;;5071793;28;20043;-64
2024/02/18 07:27:10;;;;;;;8.73;3.78;;;;;;;;;;5072255;28;20028;-64
2024/02/18 07:29:36;;;;;;;10.43;4.45;;;;;;;;;;5070973;28;20492;-63
2024/02/18 07:32:02;;;;;;;13.57;4.25;;;;;;;;;;5070981;28;20024;-63
2024/02/18 07:34:28;;;;;;;10.23;4.30;;;;;;;;;;5075600;28;20034;-63
2024/02/18 07:36:57;;;;;;;14.90;5.70;;;;;;;;;;5067532;28;20021;-64
2024/02/18 07:39:24;;;;;;;11.52;5.05;;;;;;;;;;5071680;28;20024;-63
2024/02/18 07:41:50;;;;;;;13.82;5.00;;;;;;;;;;5076923;28;20029;-64
2024/02/18 07:44:16;;;;;;;14.15;5.22;;;;;;;;;;5073203;28;20099;-64
2024/02/18 07:46:42;;;;;;;10.55;5.53;;;;;;;;;;5070914;28;20108;-63
2024/02/18 07:49:09;;;;;;;9.02;5.18;;;;;;;;;;5071531;28;20024;-63
2024/02/18 07:51:35;;;;;;;9.95;5.00;;;;;;;;;;5070104;28;20020;-63
2024/02/18 07:54:01;;;;;;;17.13;5.90;;;;;;;;;;5071789;28;20070;-62
2024/02/18 07:56:27;;;;;;;10.90;6.05;;;;;;;;;;5066148;28;20082;-62
2024/02/18 07:58:53;;;;;;;21.48;6.40;;;;;;;;;;5066664;28;20028;-62
2024/02/18 08:01:19;;;;;;;14.95;5.63;;;;;;;;;;5071600;28;20035;-61
2024/02/18 08:03:45;;;;;;;13.75;6.15;;;;;;;;;;5072155;28;20020;-61
2024/02/18 08:06:11;;;;;;;18.20;6.63;;;;;;;;;;5071560;28;20166;-62
2024/02/18 08:08:37;;;;;;;13.20;5.68;;;;;;;;;;5072749;28;20016;-63
2024/02/18 08:11:03;;;;;;;15.23;6.07;;;;;;;;;;5077857;28;20036;-63
2024/02/18 08:13:29;;;;;;;16.33;6.55;;;;;;;;;;5074037;28;20024;-62
2024/02/18 08:15:56;;;;;;;12.65;5.65;;;;;;;;;;5072173;28;20162;-61
2024/02/18 08:18:24;;;;;;;12.38;5.35;;;;;;;;;;5072371;28;20023;-61
2024/02/18 08:20:50;;;;;;;9.98;4.43;;;;;;;;;;5072287;28;20035;-63
2024/02/18 08:23:16;;;;;;;9.98;4.35;;;;;;;;;;5072358;28;20478;-63
2024/02/18 08:25:41;;;;;;;16.17;5.63;;;;;;;;;;5073099;28;20017;-63
2024/02/18 08:28:07;;;;;;;7.63;4.05;;;;;;;;;;5066990;28;20033;-64
2024/02/18 08:30:33;;;;;;;9.60;4.05;;;;;;;;;;5065324;28;20136;-62
2024/02/18 08:32:59;;;;;;;10.55;4.50;;;;;;;;;;5065851;28;20060;-62
2024/02/18 08:35:25;;;;;;;11.02;4.57;;;;;;;;;;5062390;28;20075;-62
2024/02/18 08:37:51;;;;;;;10.63;4.30;;;;;;;;;;5063601;28;20116;-63
2024/02/18 08:40:17;;;;;;;8.77;4.55;;;;;;;;;;5068876;28;20111;-62
2024/02/18 08:42:43;;;;;;;10.30;4.60;;;;;;;;;;5066137;28;20104;-63
2024/02/18 08:45:10;;;;;;;14.38;3.90;;;;;;;;;;5068826;28;20024;-63
2024/02/18 08:47:36;;;;;;;15.18;4.72;;;;;;;;;;5060091;28;20030;-62
2024/02/18 08:50:02;;;;;;;12.02;4.88;;;;;;;;;;5064673;28;20556;-63
2024/02/18 08:52:28;;;;;;;14.63;4.72;;;;;;;;;;5060677;28;20060;-63
2024/02/18 08:54:54;;;;;;;9.82;4.88;;;;;;;;;;5057652;28;20523;-63
2024/02/18 08:57:20;;;;;;;9.77;4.25;;;;;;;;;;5064948;28;20032;-62
2024/02/18 08:59:46;;;;;;;13.13;5.10;;;;;;;;;;5063033;28;20474;-63
2024/02/18 09:02:12;;;;;;;9.27;4.43;;;;;;;;;;5062435;28;20163;-62
2024/02/18 09:04:38;;;;;;;17.17;4.60;;;;;;;;;;5059737;28;20117;-62
2024/02/18 09:07:04;;;;;;;8.95;4.68;;;;;;;;;;5061318;28;20411;-62
2024/02/18 09:09:31;;;;;;;13.10;3.97;;;;;;;;;;5064056;28;20071;-62
2024/02/18 09:11:57;;;;;;;13.98;4.65;;;;;;;;;;5063677;28;20024;-63
2024/02/18 09:14:23;;;;;;;12.98;5.22;;;;;;;;;;5066137;28;20166;-62
2024/02/18 09:16:49;;;;;;;11.52;4.45;;;;;;;;;;5061242;28;20108;-63
2024/02/18 09:19:15;;;;;;;14.85;4.80;;;;;;;;;;5069806;28;20414;-64
2024/02/18 09:21:41;;;;;;;16.55;4.65;;;;;;;;;;5068178;28;20036;-63
2024/02/18 09:24:07;;;;;;;18.27;5.03;;;;;;;;;;5064343;28;20037;-63
2024/02/18 09:26:32;;;;;;;17.45;5.20;;;;;;;;;;5063916;28;20036;-64
2024/02/18 09:28:58;;;;;;;17.48;4.88;;;;;;;;;;5066584;28;20063;-64
2024/02/18 09:31:24;;;;;;;16.77;4.90;;;;;;;;;;5069606;28;20036;-64
2024/02/18 09:33:50;;;;;;;10.80;4.90;;;;;;;;;;5066136;28;20032;-64
2024/02/18 09:36:16;;;;;;;11.23;4.40;;;;;;;;;;5062902;28;20075;-61
2024/02/18 09:38:42;;;;;;;7.63;3.88;;;;;;;;;;5058070;28;20040;-63
2024/02/18 09:41:19;;;;;;;10.40;4.00;;;;;;;;;;5059404;28;20033;-62
2024/02/18 09:43:46;;;;;;;15.40;4.32;;;;;;;;;;5064233;28;20537;-63
2024/02/18 09:46:13;;;;;;;13.55;4.32;;;;;;;;;;5060410;28;20036;-63
2024/02/18 09:48:39;;;;;;;9.73;3.45;;;;;;;;;;5050845;28;20021;-63
2024/02/18 09:51:06;;;;;;;9.00;3.42;;;;;;;;;;5071882;28;20032;-64
2024/02/18 09:53:33;;;;;;;9.27;3.97;;;;;;;;;;5069635;28;20028;-65
2024/02/18 09:56:02;;;;;;;8.48;3.58;;;;;;;;;;5072513;28;20127;-65
2024/02/18 09:58:29;;;;;;;15.75;4.10;;;;;;;;;;5072140;28;20024;-63
2024/02/18 10:00:55;;;;;;;8.57;3.50;;;;;;;;;;5073664;28;20047;-64
2024/02/18 10:03:21;;;;;;;6.57;3.75;;;;;;;;;;5069775;28;20032;-64
2024/02/18 10:05:47;;;;;;;7.95;3.53;;;;;;;;;;5073969;28;20020;-65
2024/02/18 10:08:13;;;;;;;11.93;2.85;;;;;;;;;;5072399;28;20033;-64
2024/02/18 10:10:39;;;;;;;10.80;3.25;;;;;;;;;;5070490;28;20028;-64
2024/02/18 10:13:06;;;;;;;6.50;2.42;;;;;;;;;;5073029;28;20111;-65
2024/02/18 10:15:32;;;;;;;8.65;2.40;;;;;;;;;;5069340;28;20035;-64
2024/02/18 10:17:58;;;;;;;5.82;2.08;;;;;;;;;;5066555;28;20135;-64
2024/02/18 10:20:27;;;;;;;10.95;2.60;;;;;;;;;;5066214;28;20039;-64
2024/02/18 10:22:54;;;;;;;8.02;2.20;;;;;;;;;;5070184;28;20027;-65
2024/02/18 10:25:20;;;;;;;8.63;2.50;;;;;;;;;;5071622;28;20484;-65
2024/02/18 10:27:45;;;;;;;8.18;2.50;;;;;;;;;;5069240;28;20021;-65
2024/02/18 10:30:12;;;;;;;10.07;2.53;;;;;;;;;;5065431;28;20070;-65
2024/02/18 10:32:39;;;;;;;6.15;2.75;;;;;;;;;;5074184;28;20523;-65
2024/02/18 10:35:05;;;;;;;5.57;2.38;;;;;;;;;;5070806;28;20042;-64
2024/02/18 10:37:41;;;;;;;10.35;3.35;;;;;;;;;;5078884;28;20047;-64
2024/02/18 10:40:15;;;;;;;6.45;2.65;;;;;;;;;;5071681;28;20063;-65
2024/02/18 10:42:44;;;;;;;12.00;2.75;;;;;;;;;;5075901;28;20473;-65
2024/02/18 10:45:10;;;;;;;7.50;2.60;;;;;;;;;;5064317;28;20025;-65
2024/02/18 10:47:37;;;;;;;18.70;4.28;;;;;;;;;;5066881;28;20060;-65
2024/02/18 10:50:06;;;;;;;8.60;2.78;;;;;;;;;;5072185;28;20512;-64
2024/02/18 10:52:46;;;;;;;10.25;2.40;;;;;;;;;;5075013;28;20032;-63
2024/02/18 10:55:17;;;;;;;12.23;3.03;;;;;;;;;;5066843;28;20435;-65
2024/02/18 10:58:07;;;;;;;13.68;3.03;;;;;;;;;;5070414;28;20081;-65
2024/02/18 11:00:36;;;;;;;9.13;3.53;;;;;;;;;;5053854;28;20048;-65
2024/02/18 11:03:11;;;;;;;12.43;3.25;;;;;;;;;;5069273;28;20041;-64
2024/02/18 11:05:37;;;;;;;12.27;3.03;;;;;;;;;;5067683;28;20398;-64
2024/02/18 11:08:04;;;;;;;10.45;3.67;;;;;;;;;;5061165;28;20028;-65
2024/02/18 11:10:30;;;;;;;10.20;3.53;;;;;;;;;;5066421;28;20021;-64
2024/02/18 11:12:57;;;;;;;11.73;3.28;;;;;;;;;;5063204;28;20060;-64
2024/02/18 11:15:23;;;;;;;13.80;3.78;;;;;;;;;;5066900;28;20063;-66
2024/02/18 11:17:49;;;;;;;10.73;3.60;;;;;;;;;;5059167;28;20648;-65
2024/02/18 11:20:15;;;;;;;24.70;3.70;;;;;;;;;;5060857;28;20063;-64
2024/02/18 11:22:42;;;;;;;12.45;3.15;;;;;;;;;;5058262;28;20025;-64
2024/02/18 11:25:08;;;;;;;11.70;3.42;;;;;;;;;;5054350;28;20029;-63
2024/02/18 11:27:35;;;;;;;13.68;3.05;;;;;;;;;;5060727;28;20384;-65
2024/02/18 11:30:01;;;;;;;8.25;4.03;;;;;;;;;;5057992;28;20344;-64
2024/02/18 11:32:27;;;;;;;10.65;2.85;;;;;;;;;;5057238;28;20059;-66
2024/02/18 11:34:53;;;;;;;10.20;3.35;;;;;;;;;;5056672;28;20376;-65
2024/02/18 11:37:35;;;;;;;11.85;3.63;;;;;;;;;;5057790;28;20028;-65
2024/02/18 11:40:11;;;;;;;10.77;3.30;;;;;;;;;;5055193;28;20028;-65
2024/02/18 11:42:38;;;;;;;6.85;2.70;;;;;;;;;;5054528;28;20029;-62
2024/02/18 11:45:19;;;;;;;14.25;3.38;;;;;;;;;;5058548;28;20025;-65
2024/02/18 11:47:51;;;;;;;10.05;3.15;;;;;;;;;;5054686;28;20033;-65
2024/02/18 11:50:18;;;;;;;8.52;3.30;;;;;;;;;;5057333;28;20094;-63
2024/02/18 11:52:46;;;;;;;16.20;3.30;;;;;;;;;;5057871;28;20039;-65
2024/02/18 11:55:15;;;;;;;11.93;2.92;;;;;;;;;;5052678;28;20426;-63
2024/02/18 11:57:41;;;;;;;22.67;3.80;;;;;;;;;;5055600;28;20061;-65
2024/02/18 12:00:12;;;;;;;11.27;3.08;;;;;;;;;;5059790;28;20029;-63
2024/02/18 12:02:39;;;;;;;11.65;3.20;;;;;;;;;;5061664;28;20032;-64
2024/02/18 12:05:06;;;;;;;12.95;3.20;;;;;;;;;;5064679;28;20028;-64
2024/02/18 12:07:33;;;;;;;12.93;3.60;;;;;;;;;;5059735;28;20036;-63
2024/02/18 12:09:59;;;;;;;16.98;3.88;;;;;;;;;;5061849;28;20425;-62
2024/02/18 12:12:26;;;;;;;7.40;3.35;;;;;;;;;;5065638;28;20166;-64
2024/02/18 12:14:56;;;;;;;13.38;3.58;;;;;;;;;;5072281;28;20112;-64
2024/02/18 12:17:22;;;;;;;16.05;4.60;;;;;;;;;;5061688;28;20494;-65
2024/02/18 12:19:48;;;;;;;9.18;2.90;;;;;;;;;;5065447;28;20091;-64
2024/02/18 12:22:24;;;;;;;8.68;3.85;;;;;;;;;;5070313;28;20028;-64
2024/02/18 12:24:51;;;;;;;11.07;4.18;;;;;;;;;;5073947;28;20486;-65
2024/02/18 12:27:21;;;;;;;15.50;4.47;;;;;;;;;;5068812;28;20044;-64
2024/02/18 12:29:47;;;;;;;12.48;4.68;;;;;;;;;;5063342;28;20020;-63
2024/02/18 12:32:16;;;;;;;8.32;3.97;;;;;;;;;;5060234;28;20032;-64
2024/02/18 12:34:42;;;;;;;8.57;5.32;;;;;;;;;;5066891;28;20513;-62
2024/02/18 12:37:09;;;;;;;10.93;4.05;;;;;;;;;;5062496;28;20041;-64
2024/02/18 12:39:38;;;;;;;11.32;4.20;;;;;;;;;;5066678;28;20379;-62
2024/02/18 12:42:05;;;;;;;17.88;5.20;;;;;;;;;;5065573;28;20063;-62
2024/02/18 12:44:32;;;;;;;11.88;4.13;;;;;;;;;;5054440;28;20036;-65
2024/02/18 12:47:01;;;;;;;10.23;3.83;;;;;;;;;;5065886;28;20066;-64
2024/02/18 12:49:27;;;;;;;9.15;4.50;;;;;;;;;;5061831;28;20028;-64
2024/02/18 12:52:02;;;;;;;6.43;3.70;;;;;;;;;;5063687;28;20087;-65
2024/02/18 12:54:28;;;;;;;9.00;4.18;;;;;;;;;;5057931;28;20029;-64
2024/02/18 12:56:54;;;;;;;9.40;4.03;;;;;;;;;;5056676;28;20406;-63
2024/02/18 12:59:20;;;;;;;8.20;4.10;;;;;;;;;;5057804;28;20039;-63
2024/02/18 13:01:46;;;;;;;14.07;4.93;;;;;;;;;;5061424;28;20036;-63
2024/02/18 13:04:12;;;;;;;11.00;5.03;;;;;;;;;;5065524;28;20024;-64
2024/02/18 13:06:39;;;;;;;11.38;4.03;;;;;;;;;;5063490;28;20032;-63
2024/02/18 13:09:05;;;;;;;12.82;4.18;;;;;;;;;;5062046;28;20024;-63
2024/02/18 13:11:31;;;;;;;10.38;4.10;;;;;;;;;;5060848;28;20414;-62
2024/02/18 13:13:59;;;;;;;18.95;6.15;;;;;;;;;;5062894;28;20572;-63
2024/02/18 13:16:26;;;;;;;6.93;3.78;;;;;;;;;;5068834;28;20032;-63
2024/02/18 13:18:52;;;;;;;14.48;3.67;;;;;;;;;;5066156;28;20043;-63
2024/02/18 13:21:17;;;;;;;12.45;4.75;;;;;;;;;;5066683;28;20429;-64
2024/02/18 13:23:43;;;;;;;8.82;4.57;;;;;;;;;;5067700;28;20032;-64
2024/02/18 13:26:10;;;;;;;15.05;4.25;;;;;;;;;;5069058;28;20017;-62
2024/02/18 13:28:36;;;;;;;11.40;4.55;;;;;;;;;;5062508;28;20021;-63
2024/02/18 13:31:06;;;;;;;11.02;4.88;;;;;;;;;;5064500;28;20056;-64
2024/02/18 13:33:33;;;;;;;8.68;4.57;;;;;;;;;;5070963;28;20808;-64
2024/02/18 13:35:59;;;;;;;12.43;4.75;;;;;;;;;;5065622;28;20032;-64
2024/02/18 13:38:25;;;;;;;7.95;3.90;;;;;;;;;;5060196;28;20029;-64
2024/02/18 13:40:51;;;;;;;6.95;3.85;;;;;;;;;;5064064;28;20064;-65
2024/02/18 13:43:17;;;;;;;9.75;4.50;;;;;;;;;;5065963;28;20074;-64
2024/02/18 13:45:43;;;;;;;8.18;3.65;;;;;;;;;;5062312;28;20025;-65
2024/02/18 13:48:09;;;;;;;7.55;4.63;;;;;;;;;;5061281;28;20098;-65
2024/02/18 13:50:36;;;;;;;8.93;4.50;;;;;;;;;;5067524;28;20047;-64
2024/02/18 13:53:03;;;;;;;10.50;4.35;;;;;;;;;;5059842;28;20076;-65
2024/02/18 13:55:29;;;;;;;10.95;5.43;;;;;;;;;;5065506;28;20033;-65
2024/02/18 13:57:57;;;;;;;6.03;4.00;;;;;;;;;;5062997;28;20035;-65
2024/02/18 14:00:24;;;;;;;5.90;3.80;;;;;;;;;;5064649;28;20470;-65
2024/02/18 14:02:49;;;;;;;11.38;4.28;;;;;;;;;;5062038;28;20039;-64
2024/02/18 14:05:19;;;;;;;9.02;4.38;;;;;;;;;;5069664;28;20029;-66
2024/02/18 14:07:45;;;;;;;12.32;4.35;;;;;;;;;;5069706;28;20016;-66
2024/02/18 14:10:19;;;;;;;13.45;4.13;;;;;;;;;;5063419;28;20596;-65
2024/02/18 14:12:45;;;;;;;12.15;4.55;;;;;;;;;;5065971;28;20028;-65
2024/02/18 14:15:12;;;;;;;8.38;4.43;;;;;;;;;;5062836;28;20102;-65
2024/02/18 14:17:39;;;;;;;10.88;4.38;;;;;;;;;;5066730;28;20054;-66
2024/02/18 14:20:06;;;;;;;8.25;4.47;;;;;;;;;;5065426;28;20047;-65
2024/02/18 14:22:32;;;;;;;12.45;5.43;;;;;;;;;;5064629;28;20036;-66
2024/02/18 14:24:58;;;;;;;11.30;4.93;;;;;;;;;;5056063;28;20035;-65
2024/02/18 14:27:24;;;;;;;12.90;5.50;;;;;;;;;;5064442;28;20127;-66